Time;durP1;ratioP1;P1;durP2;ratioP2;P2;SDS_P1;SDS_P2;PMS_P1;PMS_P2;Temp;Humidity;BMP_temperature;BMP_pressure;BME280_temperature;BME280_humidity;BME280_pressure;Samples;Min_cycle;Max_cycle;Signal;HPM_P1;HPM_P2
2022/10/23 00:10:58;;;;;;;12.3;15.3;;;;;;;13.1;88.6;99030;;;;
2022/10/23 00:20:58;;;;;;;14.1;16.9;;;;;;;13.1;88.4;99030;;;;
2022/10/23 00:31:58;;;;;;;14.1;16.9;;;;;;;13;88.4;99050;;;;
2022/10/23 00:41:58;;;;;;;14.5;20.4;;;;;;;13.1;88.2;99060;;;;
2022/10/23 00:51:58;;;;;;;14.5;20.4;;;;;;;13.1;88.2;99060;;;;
2022/10/23 01:02:58;;;;;;;14.5;20.4;;;;;;;13;88.2;99070;;;;
2022/10/23 01:13:58;;;;;;;14;16.9;;;;;;;13;88.3;99060;;;;
2022/10/23 01:24:58;;;;;;;14;16.9;;;;;;;13;88.2;99070;;;;
2022/10/23 01:34:58;;;;;;;14;16.9;;;;;;;13;88.1;99080;;;;
2022/10/23 01:45:58;;;;;;;15.1;19.5;;;;;;;13.1;87.9;99070;;;;
2022/10/23 01:55:58;;;;;;;15.1;19.5;;;;;;;13.1;87.7;99070;;;;
2022/10/23 02:06:58;;;;;;;15.1;19.5;;;;;;;13.1;87.5;99080;;;;
2022/10/23 02:16:58;;;;;;;13.2;16.9;;;;;;;13.1;87.5;99090;;;;
2022/10/23 02:27:59;;;;;;;13.2;16.9;;;;;;;13.1;87.3;99100;;;;
2022/10/23 02:38:58;;;;;;;13.2;16.9;;;;;;;12.9;87.3;99100;;;;
2022/10/23 02:49:58;;;;;;;14.8;20.1;;;;;;;12.8;87.1;99110;;;;
2022/10/23 02:59:58;;;;;;;14.8;20.1;;;;;;;12.7;87.1;99110;;;;
2022/10/23 03:10:58;;;;;;;14.8;20.1;;;;;;;12.7;87.2;99120;;;;
2022/10/23 03:20:58;;;;;;;13.5;16;;;;;;;12.6;87.5;99120;;;;
2022/10/23 03:31:58;;;;;;;13.5;16;;;;;;;12.6;87.6;99120;;;;
2022/10/23 03:41:58;;;;;;;13.1;17.1;;;;;;;12.6;87.8;99120;;;;
2022/10/23 03:52:58;;;;;;;13.1;17.1;;;;;;;12.4;87.7;99130;;;;
2022/10/23 04:02:58;;;;;;;13.1;17.1;;;;;;;12.4;88.2;99140;;;;
2022/10/23 04:12:58;;;;;;;13.8;16.5;;;;;;;12.4;88;99130;;;;
2022/10/23 04:22:58;;;;;;;13.8;16.5;;;;;;;12.1;87.3;99140;;;;
2022/10/23 04:32:58;;;;;;;13.8;16.5;;;;;;;12.1;87.6;99140;;;;
2022/10/23 04:43:58;;;;;;;14.7;19.8;;;;;;;12;88;99140;;;;
2022/10/23 04:54:58;;;;;;;14.7;19.8;;;;;;;12.1;88.3;99130;;;;
2022/10/23 05:05:58;;;;;;;14.7;19.8;;;;;;;12;88.4;99120;;;;
2022/10/23 05:15:58;;;;;;;14.9;17.9;;;;;;;11.7;88;99130;;;;
2022/10/23 05:25:58;;;;;;;14.9;17.9;;;;;;;11.6;88;99130;;;;
2022/10/23 05:36:58;;;;;;;14.9;17.9;;;;;;;11.6;88.2;99130;;;;
2022/10/23 05:47:58;;;;;;;16.1;20.8;;;;;;;11.8;88.9;99130;;;;
2022/10/23 05:58:58;;;;;;;16.1;20.8;;;;;;;12.1;89;99130;;;;
2022/10/23 06:08:58;;;;;;;16.1;20.8;;;;;;;12.3;88.9;99130;;;;
2022/10/23 06:20:01;;;;;;;14.2;19.5;;;;;;;12.5;88.9;99140;;;;
2022/10/23 06:30:58;;;;;;;14.2;19.5;;;;;;;12.7;88.4;99150;;;;
2022/10/23 06:40:58;;;;;;;14.2;19.5;;;;;;;12.8;87.7;99170;;;;
2022/10/23 06:50:58;;;;;;;13.8;17.2;;;;;;;12.8;87.8;99180;;;;
2022/10/23 07:01:58;;;;;;;13.8;17.2;;;;;;;12.9;87.4;99180;;;;
2022/10/23 07:11:58;;;;;;;15.2;17.2;;;;;;;13.1;87.5;99200;;;;
2022/10/23 07:22:58;;;;;;;15.2;17.2;;;;;;;13.7;87;99210;;;;
2022/10/23 07:32:58;;;;;;;15.2;17.2;;;;;;;13.9;85.3;99210;;;;
2022/10/23 07:42:58;;;;;;;16.4;20;;;;;;;14.1;84.2;99210;;;;
2022/10/23 07:53:58;;;;;;;16.4;20;;;;;;;14.5;83.9;99220;;;;
2022/10/23 08:04:58;;;;;;;16.4;20;;;;;;;14.8;83;99230;;;;
2022/10/23 08:14:58;;;;;;;19.9;25.1;;;;;;;14.8;81.3;99210;;;;
2022/10/23 08:24:58;;;;;;;19.9;25.1;;;;;;;15.1;81.4;99200;;;;
2022/10/23 08:34:58;;;;;;;19.9;25.1;;;;;;;15.4;80.9;99210;;;;
2022/10/23 08:44:58;;;;;;;14.9;18;;;;;;;15.5;80.2;99200;;;;
2022/10/23 08:54:58;;;;;;;14.9;18;;;;;;;15.7;80;99200;;;;
2022/10/23 09:04:58;;;;;;;14.9;18;;;;;;;16.1;79.6;99210;;;;
2022/10/23 09:15:58;;;;;;;9.4;12.4;;;;;;;16.5;78;99200;;;;
2022/10/23 09:26:59;;;;;;;9.4;12.4;;;;;;;17;75.8;99200;;;;
2022/10/23 09:37:58;;;;;;;9.4;12.4;;;;;;;17.6;75.9;99200;;;;
2022/10/23 09:47:58;;;;;;;7;12.7;;;;;;;18.2;74.4;99190;;;;
2022/10/23 09:58:58;;;;;;;7;12.7;;;;;;;18.4;72.3;99170;;;;
2022/10/23 10:08:58;;;;;;;7;12.7;;;;;;;18.4;73;99170;;;;
2022/10/23 10:18:58;;;;;;;7.8;9.6;;;;;;;18.4;73.5;99170;;;;
2022/10/23 10:28:58;;;;;;;7.8;9.6;;;;;;;18.5;72.7;99160;;;;
2022/10/23 10:39:58;;;;;;;7.8;9.6;;;;;;;18.7;72.5;99140;;;;
2022/10/23 10:49:58;;;;;;;8.8;12.4;;;;;;;18.7;70.6;99140;;;;
2022/10/23 11:00:58;;;;;;;8.8;12.4;;;;;;;18.8;70.5;99120;;;;
2022/10/23 11:11:58;;;;;;;7.6;12.6;;;;;;;18.9;69.4;99110;;;;
2022/10/23 11:22:58;;;;;;;7.6;12.6;;;;;;;18.7;68.7;99090;;;;
2022/10/23 11:33:57;;;;;;;7.6;12.6;;;;;;;18.9;69.2;99090;;;;
2022/10/23 11:44:00;;;;;;;7.6;10.7;;;;;;;19;69.1;99080;;;;
2022/10/23 11:54:57;;;;;;;7.6;10.7;;;;;;;19.2;68.7;99070;;;;
2022/10/23 12:04:57;;;;;;;7.6;10.7;;;;;;;19.2;68.4;99060;;;;
2022/10/23 12:15:57;;;;;;;8.2;11.7;;;;;;;19.1;68.6;99050;;;;
2022/10/23 12:25:57;;;;;;;8.2;11.7;;;;;;;19.2;68.6;99020;;;;
2022/10/23 12:36:58;;;;;;;8.2;11.7;;;;;;;19.3;68.5;99010;;;;
2022/10/23 12:46:57;;;;;;;8.3;11.7;;;;;;;19.2;68;98990;;;;
2022/10/23 12:56:58;;;;;;;8.3;11.7;;;;;;;18.9;68.2;99000;;;;
2022/10/23 13:06:57;;;;;;;8.3;11.7;;;;;;;19;68.3;99010;;;;
2022/10/23 13:17:57;;;;;;;8.2;10.5;;;;;;;18.9;68.5;99000;;;;
2022/10/23 13:27:57;;;;;;;8.2;10.5;;;;;;;18.7;68.3;98990;;;;
2022/10/23 13:37:57;;;;;;;8.2;10.5;;;;;;;18.7;68.5;98970;;;;
2022/10/23 13:48:57;;;;;;;7.8;11.8;;;;;;;18.5;69.1;98980;;;;
2022/10/23 13:59:58;;;;;;;7.8;11.8;;;;;;;18.2;69.6;98990;;;;
2022/10/23 14:10:57;;;;;;;7.8;11.8;;;;;;;18.2;70;98990;;;;
2022/10/23 14:21:57;;;;;;;7.7;10.9;;;;;;;18.1;70.1;98980;;;;
2022/10/23 14:31:57;;;;;;;7.7;10.9;;;;;;;17.9;70.9;98980;;;;
2022/10/23 14:41:57;;;;;;;8.1;11.8;;;;;;;17.6;71.6;98970;;;;
2022/10/23 14:52:57;;;;;;;8.1;11.8;;;;;;;17.2;72.7;98980;;;;
2022/10/23 15:02:57;;;;;;;8.1;11.8;;;;;;;16.7;73.5;98970;;;;
2022/10/23 15:13:57;;;;;;;7.4;10.2;;;;;;;16.3;73.9;98970;;;;
2022/10/23 15:24:57;;;;;;;7.4;10.2;;;;;;;15.7;74.3;98970;;;;
2022/10/23 15:35:57;;;;;;;7.4;10.2;;;;;;;15.1;76;98960;;;;
2022/10/23 15:45:57;;;;;;;13.9;18.3;;;;;;;14.7;77.4;98960;;;;
2022/10/23 15:56:57;;;;;;;13.9;18.3;;;;;;;14.1;78.9;98970;;;;
2022/10/23 16:06:57;;;;;;;13.9;18.3;;;;;;;13.7;80.1;98970;;;;
2022/10/23 16:17:57;;;;;;;11.1;15.7;;;;;;;13.4;82.6;98970;;;;
2022/10/23 16:27:57;;;;;;;11.1;15.7;;;;;;;13.2;83.3;98980;;;;
2022/10/23 16:37:57;;;;;;;11.1;15.7;;;;;;;12.9;84;98990;;;;
2022/10/23 16:48:57;;;;;;;17.5;23.4;;;;;;;12.7;84.6;99010;;;;
2022/10/23 16:59:57;;;;;;;17.5;23.4;;;;;;;12.5;84.9;99020;;;;
2022/10/23 17:09:57;;;;;;;17.5;23.4;;;;;;;12.3;85.4;99040;;;;
2022/10/23 17:19:57;;;;;;;16.7;21.9;;;;;;;12.2;86.4;99040;;;;
2022/10/23 17:29:57;;;;;;;16.7;21.9;;;;;;;12;86.3;99030;;;;
2022/10/23 17:40:57;;;;;;;16.7;21.9;;;;;;;11.9;86.9;99030;;;;
2022/10/23 17:51:57;;;;;;;15.8;19.9;;;;;;;11.6;86.7;99020;;;;
2022/10/23 18:02:57;;;;;;;15.8;19.9;;;;;;;11.6;87;99020;;;;
2022/10/23 18:13:57;;;;;;;20.1;25.3;;;;;;;11.5;87.2;99010;;;;
2022/10/23 18:24:57;;;;;;;20.1;25.3;;;;;;;11.4;86.9;99010;;;;
2022/10/23 18:34:57;;;;;;;20.1;25.3;;;;;;;11.3;87.6;99000;;;;
2022/10/23 18:45:57;;;;;;;17.2;21.1;;;;;;;11.2;88.4;99000;;;;
2022/10/23 18:55:59;;;;;;;17.2;21.1;;;;;;;11.2;89;98990;;;;
2022/10/23 19:06:57;;;;;;;17.2;21.1;;;;;;;11.2;89;98980;;;;
2022/10/23 19:16:57;;;;;;;15;18.9;;;;;;;11.2;89.3;98960;;;;
2022/10/23 19:27:57;;;;;;;15;18.9;;;;;;;11.1;88.9;98970;;;;
2022/10/23 19:37:57;;;;;;;15;18.9;;;;;;;10.8;88.1;98960;;;;
2022/10/23 19:48:57;;;;;;;19.2;25.4;;;;;;;10.6;87.7;98950;;;;
2022/10/23 19:58:57;;;;;;;19.2;25.4;;;;;;;10.3;87.5;98950;;;;
2022/10/23 20:08:57;;;;;;;19.2;25.4;;;;;;;10.1;87.4;98960;;;;
2022/10/23 20:19:57;;;;;;;21.3;26.9;;;;;;;9.9;88.4;98960;;;;
2022/10/23 20:29:57;;;;;;;21.3;26.9;;;;;;;9.8;88.6;98950;;;;
2022/10/23 20:39:57;;;;;;;21.3;26.9;;;;;;;9.7;88.7;98950;;;;
2022/10/23 20:50:58;;;;;;;22.6;30.5;;;;;;;9.6;88.9;98950;;;;
2022/10/23 21:00:57;;;;;;;22.6;30.5;;;;;;;9.5;89.7;98940;;;;
2022/10/23 21:10:57;;;;;;;22.6;30.5;;;;;;;9.5;90.3;98930;;;;
2022/10/23 21:21:57;;;;;;;23.5;30.5;;;;;;;9.4;90.9;98920;;;;
2022/10/23 21:32:57;;;;;;;23.5;30.5;;;;;;;9.2;90.5;98910;;;;
2022/10/23 21:42:57;;;;;;;17.3;20.5;;;;;;;9.2;90.4;98910;;;;
2022/10/23 21:53:57;;;;;;;17.3;20.5;;;;;;;9.1;90.3;98900;;;;
2022/10/23 22:04:57;;;;;;;17.3;20.5;;;;;;;8.9;89.9;98890;;;;
2022/10/23 22:14:57;;;;;;;13.6;20.9;;;;;;;8.8;89.6;98910;;;;
2022/10/23 22:24:57;;;;;;;13.6;20.9;;;;;;;8.7;89.4;98900;;;;
2022/10/23 22:35:57;;;;;;;13.6;20.9;;;;;;;8.5;89.2;98880;;;;
2022/10/23 22:45:57;;;;;;;17.1;20.2;;;;;;;8.4;89.8;98870;;;;
2022/10/23 22:56:57;;;;;;;17.1;20.2;;;;;;;8.7;91.2;98850;;;;
2022/10/23 23:07:57;;;;;;;17.1;20.2;;;;;;;8.7;91.3;98840;;;;
2022/10/23 23:17:57;;;;;;;14.6;17.6;;;;;;;8.6;90.5;98850;;;;
2022/10/23 23:28:57;;;;;;;14.6;17.6;;;;;;;8.5;89.8;98850;;;;
2022/10/23 23:39:57;;;;;;;14.6;17.6;;;;;;;8.3;89.3;98840;;;;
2022/10/23 23:50:57;;;;;;;19.3;25.8;;;;;;;8.3;89.2;98850;;;;
